sensor_id;sensor_type;location;lat;lon;timestamp;P1;durP1;ratioP1;P2;durP2;ratioP2
34872;SDS011;21084;51.098;14.506;2024-01-07T00:01:10;59.55;;;27.70;;
34872;SDS011;21084;51.098;14.506;2024-01-07T00:03:41;64.35;;;28.20;;
34872;SDS011;21084;51.098;14.506;2024-01-07T00:06:10;64.63;;;27.67;;
34872;SDS011;21084;51.098;14.506;2024-01-07T00:08:38;62.08;;;27.05;;
34872;SDS011;21084;51.098;14.506;2024-01-07T00:11:07;64.32;;;28.10;;
34872;SDS011;21084;51.098;14.506;2024-01-07T00:13:35;68.07;;;29.23;;
34872;SDS011;21084;51.098;14.506;2024-01-07T00:16:04;68.53;;;29.23;;
34872;SDS011;21084;51.098;14.506;2024-01-07T00:18:33;62.72;;;28.15;;
34872;SDS011;21084;51.098;14.506;2024-01-07T00:21:04;63.50;;;28.17;;
34872;SDS011;21084;51.098;14.506;2024-01-07T00:23:32;58.63;;;27.63;;
34872;SDS011;21084;51.098;14.506;2024-01-07T00:26:01;63.58;;;27.77;;
34872;SDS011;21084;51.098;14.506;2024-01-07T00:28:30;64.30;;;27.67;;
34872;SDS011;21084;51.098;14.506;2024-01-07T00:30:58;62.35;;;28.45;;
34872;SDS011;21084;51.098;14.506;2024-01-07T00:33:27;68.68;;;29.33;;
34872;SDS011;21084;51.098;14.506;2024-01-07T00:35:56;71.03;;;30.33;;
34872;SDS011;21084;51.098;14.506;2024-01-07T00:38:25;63.70;;;27.92;;
34872;SDS011;21084;51.098;14.506;2024-01-07T00:40:54;62.65;;;28.42;;
34872;SDS011;21084;51.098;14.506;2024-01-07T00:43:22;65.20;;;28.88;;
34872;SDS011;21084;51.098;14.506;2024-01-07T00:45:52;63.90;;;28.63;;
34872;SDS011;21084;51.098;14.506;2024-01-07T00:48:20;63.58;;;28.17;;
34872;SDS011;21084;51.098;14.506;2024-01-07T00:50:49;66.47;;;28.08;;
34872;SDS011;21084;51.098;14.506;2024-01-07T00:53:17;64.32;;;28.33;;
34872;SDS011;21084;51.098;14.506;2024-01-07T00:55:47;57.85;;;28.67;;
34872;SDS011;21084;51.098;14.506;2024-01-07T00:58:16;66.95;;;29.92;;
34872;SDS011;21084;51.098;14.506;2024-01-07T01:00:45;68.07;;;29.48;;
34872;SDS011;21084;51.098;14.506;2024-01-07T01:03:13;66.43;;;29.83;;
34872;SDS011;21084;51.098;14.506;2024-01-07T01:05:42;64.55;;;29.48;;
34872;SDS011;21084;51.098;14.506;2024-01-07T01:08:10;69.60;;;30.15;;
34872;SDS011;21084;51.098;14.506;2024-01-07T01:10:39;66.70;;;28.98;;
34872;SDS011;21084;51.098;14.506;2024-01-07T01:13:09;61.70;;;27.88;;
34872;SDS011;21084;51.098;14.506;2024-01-07T01:15:38;66.53;;;27.73;;
34872;SDS011;21084;51.098;14.506;2024-01-07T01:18:06;63.47;;;27.92;;
34872;SDS011;21084;51.098;14.506;2024-01-07T01:20:35;63.92;;;28.55;;
34872;SDS011;21084;51.098;14.506;2024-01-07T01:23:03;62.47;;;28.35;;
34872;SDS011;21084;51.098;14.506;2024-01-07T01:25:32;60.10;;;27.00;;
34872;SDS011;21084;51.098;14.506;2024-01-07T01:28:02;65.57;;;28.80;;
34872;SDS011;21084;51.098;14.506;2024-01-07T01:30:33;57.40;;;26.23;;
34872;SDS011;21084;51.098;14.506;2024-01-07T01:33:02;61.25;;;26.67;;
34872;SDS011;21084;51.098;14.506;2024-01-07T01:35:30;59.93;;;26.17;;
34872;SDS011;21084;51.098;14.506;2024-01-07T01:37:59;58.78;;;26.40;;
34872;SDS011;21084;51.098;14.506;2024-01-07T01:40:28;56.88;;;24.40;;
34872;SDS011;21084;51.098;14.506;2024-01-07T01:42:58;52.95;;;25.33;;
34872;SDS011;21084;51.098;14.506;2024-01-07T01:45:26;57.50;;;25.85;;
34872;SDS011;21084;51.098;14.506;2024-01-07T01:47:56;60.88;;;27.20;;
34872;SDS011;21084;51.098;14.506;2024-01-07T01:50:25;49.92;;;22.90;;
34872;SDS011;21084;51.098;14.506;2024-01-07T01:52:54;51.78;;;24.30;;
34872;SDS011;21084;51.098;14.506;2024-01-07T01:55:23;50.63;;;24.17;;
34872;SDS011;21084;51.098;14.506;2024-01-07T01:57:52;49.78;;;22.98;;
34872;SDS011;21084;51.098;14.506;2024-01-07T02:00:22;55.33;;;24.42;;
34872;SDS011;21084;51.098;14.506;2024-01-07T02:02:50;54.25;;;23.80;;
34872;SDS011;21084;51.098;14.506;2024-01-07T02:05:20;52.73;;;23.57;;
34872;SDS011;21084;51.098;14.506;2024-01-07T02:07:49;50.58;;;23.80;;
34872;SDS011;21084;51.098;14.506;2024-01-07T02:10:18;52.58;;;24.45;;
34872;SDS011;21084;51.098;14.506;2024-01-07T02:12:47;52.78;;;24.98;;
34872;SDS011;21084;51.098;14.506;2024-01-07T02:15:16;53.25;;;23.98;;
34872;SDS011;21084;51.098;14.506;2024-01-07T02:17:44;52.30;;;23.80;;
34872;SDS011;21084;51.098;14.506;2024-01-07T02:20:13;50.72;;;24.23;;
34872;SDS011;21084;51.098;14.506;2024-01-07T02:22:43;56.40;;;23.95;;
34872;SDS011;21084;51.098;14.506;2024-01-07T02:27:41;49.78;;;22.60;;
34872;SDS011;21084;51.098;14.506;2024-01-07T02:30:10;51.13;;;23.27;;
34872;SDS011;21084;51.098;14.506;2024-01-07T02:32:39;51.92;;;22.60;;
34872;SDS011;21084;51.098;14.506;2024-01-07T02:35:08;50.17;;;23.85;;
34872;SDS011;21084;51.098;14.506;2024-01-07T02:37:36;51.13;;;22.77;;
34872;SDS011;21084;51.098;14.506;2024-01-07T02:40:05;50.88;;;23.20;;
34872;SDS011;21084;51.098;14.506;2024-01-07T02:42:36;54.13;;;23.63;;
34872;SDS011;21084;51.098;14.506;2024-01-07T02:45:05;48.75;;;23.15;;
34872;SDS011;21084;51.098;14.506;2024-01-07T02:47:34;53.17;;;23.80;;
34872;SDS011;21084;51.098;14.506;2024-01-07T02:50:03;49.65;;;22.40;;
34872;SDS011;21084;51.098;14.506;2024-01-07T02:52:32;35.65;;;17.00;;
34872;SDS011;21084;51.098;14.506;2024-01-07T02:55:00;44.20;;;21.95;;
34872;SDS011;21084;51.098;14.506;2024-01-07T02:57:29;46.78;;;22.00;;
34872;SDS011;21084;51.098;14.506;2024-01-07T02:59:59;48.53;;;23.88;;
34872;SDS011;21084;51.098;14.506;2024-01-07T03:04:56;46.13;;;20.63;;
34872;SDS011;21084;51.098;14.506;2024-01-07T03:07:24;50.83;;;21.67;;
34872;SDS011;21084;51.098;14.506;2024-01-07T03:09:53;46.33;;;20.55;;
34872;SDS011;21084;51.098;14.506;2024-01-07T03:12:22;46.40;;;21.43;;
34872;SDS011;21084;51.098;14.506;2024-01-07T03:14:50;40.28;;;20.58;;
34872;SDS011;21084;51.098;14.506;2024-01-07T03:17:20;47.72;;;21.25;;
34872;SDS011;21084;51.098;14.506;2024-01-07T03:19:51;45.63;;;20.73;;
34872;SDS011;21084;51.098;14.506;2024-01-07T03:22:19;50.30;;;21.10;;
34872;SDS011;21084;51.098;14.506;2024-01-07T03:24:48;48.10;;;22.27;;
34872;SDS011;21084;51.098;14.506;2024-01-07T03:27:17;44.03;;;20.25;;
34872;SDS011;21084;51.098;14.506;2024-01-07T03:29:45;55.97;;;23.13;;
34872;SDS011;21084;51.098;14.506;2024-01-07T03:32:14;35.83;;;17.63;;
34872;SDS011;21084;51.098;14.506;2024-01-07T03:34:44;40.60;;;19.80;;
34872;SDS011;21084;51.098;14.506;2024-01-07T03:37:13;42.45;;;20.40;;
34872;SDS011;21084;51.098;14.506;2024-01-07T03:39:41;43.00;;;19.73;;
34872;SDS011;21084;51.098;14.506;2024-01-07T03:42:10;46.75;;;20.13;;
34872;SDS011;21084;51.098;14.506;2024-01-07T03:44:39;46.05;;;20.48;;
34872;SDS011;21084;51.098;14.506;2024-01-07T03:47:07;41.93;;;20.20;;
34872;SDS011;21084;51.098;14.506;2024-01-07T03:49:36;42.10;;;19.50;;
34872;SDS011;21084;51.098;14.506;2024-01-07T03:52:07;43.35;;;20.52;;
34872;SDS011;21084;51.098;14.506;2024-01-07T03:54:36;40.15;;;20.25;;
34872;SDS011;21084;51.098;14.506;2024-01-07T03:57:04;43.38;;;20.65;;
34872;SDS011;21084;51.098;14.506;2024-01-07T03:59:33;48.67;;;22.52;;
34872;SDS011;21084;51.098;14.506;2024-01-07T04:02:02;40.60;;;18.98;;
34872;SDS011;21084;51.098;14.506;2024-01-07T04:04:31;41.78;;;18.73;;
34872;SDS011;21084;51.098;14.506;2024-01-07T04:06:59;38.70;;;17.92;;
34872;SDS011;21084;51.098;14.506;2024-01-07T04:09:29;37.72;;;17.90;;
34872;SDS011;21084;51.098;14.506;2024-01-07T04:11:58;37.40;;;17.50;;
34872;SDS011;21084;51.098;14.506;2024-01-07T04:14:26;33.85;;;16.58;;
34872;SDS011;21084;51.098;14.506;2024-01-07T04:16:56;31.08;;;16.20;;
34872;SDS011;21084;51.098;14.506;2024-01-07T04:19:24;32.47;;;16.23;;
34872;SDS011;21084;51.098;14.506;2024-01-07T04:21:53;35.63;;;16.30;;
34872;SDS011;21084;51.098;14.506;2024-01-07T04:24:21;33.03;;;16.08;;
34872;SDS011;21084;51.098;14.506;2024-01-07T04:26:51;33.75;;;15.05;;
34872;SDS011;21084;51.098;14.506;2024-01-07T04:29:20;36.55;;;15.40;;
34872;SDS011;21084;51.098;14.506;2024-01-07T04:31:48;33.00;;;15.13;;
34872;SDS011;21084;51.098;14.506;2024-01-07T04:34:17;34.75;;;14.98;;
34872;SDS011;21084;51.098;14.506;2024-01-07T04:36:45;30.83;;;14.48;;
34872;SDS011;21084;51.098;14.506;2024-01-07T04:39:14;32.00;;;14.32;;
34872;SDS011;21084;51.098;14.506;2024-01-07T04:41:43;28.33;;;14.98;;
34872;SDS011;21084;51.098;14.506;2024-01-07T04:44:13;34.23;;;15.37;;
34872;SDS011;21084;51.098;14.506;2024-01-07T04:46:42;31.50;;;15.02;;
34872;SDS011;21084;51.098;14.506;2024-01-07T04:49:11;33.30;;;15.48;;
34872;SDS011;21084;51.098;14.506;2024-01-07T04:51:39;34.55;;;15.45;;
34872;SDS011;21084;51.098;14.506;2024-01-07T04:54:08;31.50;;;15.65;;
34872;SDS011;21084;51.098;14.506;2024-01-07T04:56:37;32.38;;;15.57;;
34872;SDS011;21084;51.098;14.506;2024-01-07T04:59:05;37.40;;;17.10;;
34872;SDS011;21084;51.098;14.506;2024-01-07T05:01:35;34.83;;;17.05;;
34872;SDS011;21084;51.098;14.506;2024-01-07T05:04:04;36.42;;;18.27;;
34872;SDS011;21084;51.098;14.506;2024-01-07T05:06:32;38.33;;;18.95;;
34872;SDS011;21084;51.098;14.506;2024-01-07T05:09:01;40.47;;;19.93;;
34872;SDS011;21084;51.098;14.506;2024-01-07T05:11:30;34.70;;;18.58;;
34872;SDS011;21084;51.098;14.506;2024-01-07T05:13:58;35.42;;;18.08;;
34872;SDS011;21084;51.098;14.506;2024-01-07T05:16:27;44.85;;;19.15;;
34872;SDS011;21084;51.098;14.506;2024-01-07T05:18:57;37.88;;;18.88;;
34872;SDS011;21084;51.098;14.506;2024-01-07T05:21:25;39.70;;;19.85;;
34872;SDS011;21084;51.098;14.506;2024-01-07T05:23:54;41.80;;;19.58;;
34872;SDS011;21084;51.098;14.506;2024-01-07T05:26:23;38.80;;;20.37;;
34872;SDS011;21084;51.098;14.506;2024-01-07T05:28:51;39.13;;;19.60;;
34872;SDS011;21084;51.098;14.506;2024-01-07T05:31:20;42.75;;;19.58;;
34872;SDS011;21084;51.098;14.506;2024-01-07T05:33:48;36.70;;;18.85;;
34872;SDS011;21084;51.098;14.506;2024-01-07T05:36:18;39.55;;;20.30;;
34872;SDS011;21084;51.098;14.506;2024-01-07T05:38:48;37.50;;;18.25;;
34872;SDS011;21084;51.098;14.506;2024-01-07T05:41:17;40.83;;;19.80;;
34872;SDS011;21084;51.098;14.506;2024-01-07T05:43:45;33.67;;;18.02;;
34872;SDS011;21084;51.098;14.506;2024-01-07T05:46:14;35.22;;;18.20;;
34872;SDS011;21084;51.098;14.506;2024-01-07T05:48:43;33.85;;;17.77;;
34872;SDS011;21084;51.098;14.506;2024-01-07T05:51:13;36.25;;;17.67;;
34872;SDS011;21084;51.098;14.506;2024-01-07T05:56:12;31.20;;;15.73;;
34872;SDS011;21084;51.098;14.506;2024-01-07T05:58:41;31.50;;;16.10;;
34872;SDS011;21084;51.098;14.506;2024-01-07T06:01:09;34.90;;;16.70;;
34872;SDS011;21084;51.098;14.506;2024-01-07T06:03:38;30.33;;;15.50;;
34872;SDS011;21084;51.098;14.506;2024-01-07T06:06:07;31.75;;;16.20;;
34872;SDS011;21084;51.098;14.506;2024-01-07T06:08:35;33.38;;;16.17;;
34872;SDS011;21084;51.098;14.506;2024-01-07T06:11:05;29.33;;;15.52;;
34872;SDS011;21084;51.098;14.506;2024-01-07T06:13:34;30.20;;;16.13;;
34872;SDS011;21084;51.098;14.506;2024-01-07T06:16:03;29.38;;;15.65;;
34872;SDS011;21084;51.098;14.506;2024-01-07T06:18:32;29.67;;;15.95;;
34872;SDS011;21084;51.098;14.506;2024-01-07T06:21:04;28.27;;;15.73;;
34872;SDS011;21084;51.098;14.506;2024-01-07T06:23:33;34.47;;;16.47;;
34872;SDS011;21084;51.098;14.506;2024-01-07T06:26:02;32.75;;;16.30;;
34872;SDS011;21084;51.098;14.506;2024-01-07T06:28:33;33.70;;;17.52;;
34872;SDS011;21084;51.098;14.506;2024-01-07T06:31:02;35.33;;;17.65;;
34872;SDS011;21084;51.098;14.506;2024-01-07T06:33:32;31.05;;;16.73;;
34872;SDS011;21084;51.098;14.506;2024-01-07T06:36:01;28.58;;;16.10;;
34872;SDS011;21084;51.098;14.506;2024-01-07T06:38:29;33.63;;;16.50;;
34872;SDS011;21084;51.098;14.506;2024-01-07T06:40:58;32.85;;;16.67;;
34872;SDS011;21084;51.098;14.506;2024-01-07T06:43:30;27.25;;;15.48;;
34872;SDS011;21084;51.098;14.506;2024-01-07T06:46:00;32.65;;;16.70;;
34872;SDS011;21084;51.098;14.506;2024-01-07T06:48:29;29.17;;;16.15;;
34872;SDS011;21084;51.098;14.506;2024-01-07T06:50:57;32.50;;;16.55;;
34872;SDS011;21084;51.098;14.506;2024-01-07T06:53:26;32.35;;;18.63;;
34872;SDS011;21084;51.098;14.506;2024-01-07T06:55:54;29.10;;;15.70;;
34872;SDS011;21084;51.098;14.506;2024-01-07T06:58:23;28.50;;;15.90;;
34872;SDS011;21084;51.098;14.506;2024-01-07T07:00:53;31.77;;;16.63;;
34872;SDS011;21084;51.098;14.506;2024-01-07T07:03:22;29.27;;;16.73;;
34872;SDS011;21084;51.098;14.506;2024-01-07T07:05:50;30.25;;;16.27;;
34872;SDS011;21084;51.098;14.506;2024-01-07T07:08:19;29.17;;;16.30;;
34872;SDS011;21084;51.098;14.506;2024-01-07T07:10:47;32.33;;;15.32;;
34872;SDS011;21084;51.098;14.506;2024-01-07T07:13:16;30.63;;;15.82;;
34872;SDS011;21084;51.098;14.506;2024-01-07T07:15:44;28.55;;;14.90;;
34872;SDS011;21084;51.098;14.506;2024-01-07T07:18:15;32.55;;;15.80;;
34872;SDS011;21084;51.098;14.506;2024-01-07T07:20:44;28.35;;;16.10;;
34872;SDS011;21084;51.098;14.506;2024-01-07T07:23:12;25.92;;;13.93;;
34872;SDS011;21084;51.098;14.506;2024-01-07T07:25:41;28.55;;;15.13;;
34872;SDS011;21084;51.098;14.506;2024-01-07T07:28:09;27.08;;;15.10;;
34872;SDS011;21084;51.098;14.506;2024-01-07T07:30:38;27.33;;;14.45;;
34872;SDS011;21084;51.098;14.506;2024-01-07T07:33:06;25.40;;;15.10;;
34872;SDS011;21084;51.098;14.506;2024-01-07T07:35:36;28.65;;;14.45;;
34872;SDS011;21084;51.098;14.506;2024-01-07T07:38:07;23.80;;;14.25;;
34872;SDS011;21084;51.098;14.506;2024-01-07T07:40:36;28.80;;;15.57;;
34872;SDS011;21084;51.098;14.506;2024-01-07T07:43:05;28.98;;;14.95;;
34872;SDS011;21084;51.098;14.506;2024-01-07T07:45:34;25.13;;;14.93;;
34872;SDS011;21084;51.098;14.506;2024-01-07T07:48:03;28.92;;;14.52;;
34872;SDS011;21084;51.098;14.506;2024-01-07T07:50:32;25.30;;;14.18;;
34872;SDS011;21084;51.098;14.506;2024-01-07T07:53:02;27.42;;;13.88;;
34872;SDS011;21084;51.098;14.506;2024-01-07T07:55:31;25.25;;;13.38;;
34872;SDS011;21084;51.098;14.506;2024-01-07T07:58:00;23.85;;;14.50;;
34872;SDS011;21084;51.098;14.506;2024-01-07T08:00:28;28.23;;;14.10;;
34872;SDS011;21084;51.098;14.506;2024-01-07T08:02:57;27.05;;;14.32;;
34872;SDS011;21084;51.098;14.506;2024-01-07T08:05:25;26.27;;;13.82;;
34872;SDS011;21084;51.098;14.506;2024-01-07T08:07:54;29.02;;;14.43;;
34872;SDS011;21084;51.098;14.506;2024-01-07T08:10:24;26.40;;;14.25;;
34872;SDS011;21084;51.098;14.506;2024-01-07T08:12:52;26.20;;;13.93;;
34872;SDS011;21084;51.098;14.506;2024-01-07T08:15:21;25.02;;;14.38;;
34872;SDS011;21084;51.098;14.506;2024-01-07T08:17:49;24.70;;;12.98;;
34872;SDS011;21084;51.098;14.506;2024-01-07T08:20:18;25.23;;;13.45;;
34872;SDS011;21084;51.098;14.506;2024-01-07T08:22:47;24.40;;;12.63;;
34872;SDS011;21084;51.098;14.506;2024-01-07T08:25:16;23.48;;;12.45;;
34872;SDS011;21084;51.098;14.506;2024-01-07T08:27:46;20.58;;;12.32;;
34872;SDS011;21084;51.098;14.506;2024-01-07T08:30:18;23.20;;;12.43;;
34872;SDS011;21084;51.098;14.506;2024-01-07T08:32:46;20.05;;;12.30;;
34872;SDS011;21084;51.098;14.506;2024-01-07T08:35:15;16.27;;;9.60;;
34872;SDS011;21084;51.098;14.506;2024-01-07T08:37:46;23.50;;;13.80;;
34872;SDS011;21084;51.098;14.506;2024-01-07T08:40:16;21.98;;;13.07;;
34872;SDS011;21084;51.098;14.506;2024-01-07T08:42:47;22.67;;;13.02;;
34872;SDS011;21084;51.098;14.506;2024-01-07T08:45:16;21.20;;;12.23;;
34872;SDS011;21084;51.098;14.506;2024-01-07T08:50:14;22.60;;;12.02;;
34872;SDS011;21084;51.098;14.506;2024-01-07T08:52:42;19.17;;;11.27;;
34872;SDS011;21084;51.098;14.506;2024-01-07T08:55:13;22.27;;;11.85;;
34872;SDS011;21084;51.098;14.506;2024-01-07T08:57:42;21.90;;;12.40;;
34872;SDS011;21084;51.098;14.506;2024-01-07T09:00:17;21.27;;;11.70;;
34872;SDS011;21084;51.098;14.506;2024-01-07T09:02:46;19.90;;;11.93;;
34872;SDS011;21084;51.098;14.506;2024-01-07T09:05:15;21.70;;;12.60;;
34872;SDS011;21084;51.098;14.506;2024-01-07T09:07:43;23.92;;;12.38;;
34872;SDS011;21084;51.098;14.506;2024-01-07T09:10:12;19.38;;;11.18;;
34872;SDS011;21084;51.098;14.506;2024-01-07T09:12:41;21.60;;;11.50;;
34872;SDS011;21084;51.098;14.506;2024-01-07T09:15:10;21.25;;;11.60;;
34872;SDS011;21084;51.098;14.506;2024-01-07T09:17:39;22.48;;;12.43;;
34872;SDS011;21084;51.098;14.506;2024-01-07T09:20:08;22.50;;;11.55;;
34872;SDS011;21084;51.098;14.506;2024-01-07T09:22:38;21.08;;;11.77;;
34872;SDS011;21084;51.098;14.506;2024-01-07T09:25:07;21.33;;;12.13;;
34872;SDS011;21084;51.098;14.506;2024-01-07T09:27:36;18.80;;;11.00;;
34872;SDS011;21084;51.098;14.506;2024-01-07T09:30:05;19.02;;;11.43;;
34872;SDS011;21084;51.098;14.506;2024-01-07T09:32:37;17.23;;;10.75;;
34872;SDS011;21084;51.098;14.506;2024-01-07T09:35:07;17.38;;;10.27;;
34872;SDS011;21084;51.098;14.506;2024-01-07T09:37:36;17.87;;;9.93;;
34872;SDS011;21084;51.098;14.506;2024-01-07T09:40:05;17.60;;;9.95;;
34872;SDS011;21084;51.098;14.506;2024-01-07T09:42:34;17.27;;;9.75;;
34872;SDS011;21084;51.098;14.506;2024-01-07T09:45:03;20.30;;;11.27;;
34872;SDS011;21084;51.098;14.506;2024-01-07T09:47:32;51.42;;;22.50;;
34872;SDS011;21084;51.098;14.506;2024-01-07T09:50:03;28.85;;;13.43;;
34872;SDS011;21084;51.098;14.506;2024-01-07T09:52:33;20.40;;;9.23;;
34872;SDS011;21084;51.098;14.506;2024-01-07T09:55:02;19.70;;;9.25;;
34872;SDS011;21084;51.098;14.506;2024-01-07T09:57:31;18.08;;;9.63;;
34872;SDS011;21084;51.098;14.506;2024-01-07T10:02:31;14.45;;;7.63;;
34872;SDS011;21084;51.098;14.506;2024-01-07T10:05:00;11.65;;;6.82;;
34872;SDS011;21084;51.098;14.506;2024-01-07T10:07:29;12.77;;;6.70;;
34872;SDS011;21084;51.098;14.506;2024-01-07T10:09:57;11.60;;;7.07;;
34872;SDS011;21084;51.098;14.506;2024-01-07T10:12:25;13.15;;;7.03;;
34872;SDS011;21084;51.098;14.506;2024-01-07T10:14:54;10.00;;;6.22;;
34872;SDS011;21084;51.098;14.506;2024-01-07T10:17:23;14.30;;;7.87;;
34872;SDS011;21084;51.098;14.506;2024-01-07T10:19:55;13.70;;;6.30;;
34872;SDS011;21084;51.098;14.506;2024-01-07T10:22:25;12.15;;;6.85;;
34872;SDS011;21084;51.098;14.506;2024-01-07T10:24:56;12.88;;;6.57;;
34872;SDS011;21084;51.098;14.506;2024-01-07T10:27:25;11.40;;;6.05;;
34872;SDS011;21084;51.098;14.506;2024-01-07T10:29:54;11.10;;;5.83;;
34872;SDS011;21084;51.098;14.506;2024-01-07T10:32:26;12.73;;;5.70;;
34872;SDS011;21084;51.098;14.506;2024-01-07T10:34:57;11.50;;;5.82;;
34872;SDS011;21084;51.098;14.506;2024-01-07T10:37:30;9.45;;;5.45;;
34872;SDS011;21084;51.098;14.506;2024-01-07T10:40:00;8.52;;;4.78;;
34872;SDS011;21084;51.098;14.506;2024-01-07T10:42:30;8.82;;;5.32;;
34872;SDS011;21084;51.098;14.506;2024-01-07T10:45:00;11.55;;;5.97;;
34872;SDS011;21084;51.098;14.506;2024-01-07T10:47:29;8.90;;;5.20;;
34872;SDS011;21084;51.098;14.506;2024-01-07T10:49:59;9.77;;;5.47;;
34872;SDS011;21084;51.098;14.506;2024-01-07T10:52:30;10.93;;;5.40;;
34872;SDS011;21084;51.098;14.506;2024-01-07T10:55:03;8.00;;;5.05;;
34872;SDS011;21084;51.098;14.506;2024-01-07T10:57:39;10.63;;;5.18;;
34872;SDS011;21084;51.098;14.506;2024-01-07T11:00:11;9.77;;;4.80;;
34872;SDS011;21084;51.098;14.506;2024-01-07T11:02:51;8.18;;;4.47;;
34872;SDS011;21084;51.098;14.506;2024-01-07T11:05:28;7.68;;;4.53;;
34872;SDS011;21084;51.098;14.506;2024-01-07T11:08:03;7.72;;;4.40;;
34872;SDS011;21084;51.098;14.506;2024-01-07T11:10:39;9.18;;;4.55;;
34872;SDS011;21084;51.098;14.506;2024-01-07T11:13:31;8.93;;;5.00;;
34872;SDS011;21084;51.098;14.506;2024-01-07T11:16:02;9.40;;;5.32;;
34872;SDS011;21084;51.098;14.506;2024-01-07T11:18:31;10.75;;;5.80;;
34872;SDS011;21084;51.098;14.506;2024-01-07T11:21:02;9.15;;;5.28;;
34872;SDS011;21084;51.098;14.506;2024-01-07T11:23:31;13.50;;;6.75;;
34872;SDS011;21084;51.098;14.506;2024-01-07T11:26:04;13.43;;;5.53;;
34872;SDS011;21084;51.098;14.506;2024-01-07T11:31:20;10.02;;;5.50;;
34872;SDS011;21084;51.098;14.506;2024-01-07T11:33:50;11.60;;;6.05;;
34872;SDS011;21084;51.098;14.506;2024-01-07T11:36:19;14.60;;;6.38;;
34872;SDS011;21084;51.098;14.506;2024-01-07T11:38:48;11.43;;;6.13;;
34872;SDS011;21084;51.098;14.506;2024-01-07T11:41:22;11.40;;;6.32;;
34872;SDS011;21084;51.098;14.506;2024-01-07T11:43:54;10.52;;;5.20;;
34872;SDS011;21084;51.098;14.506;2024-01-07T11:46:32;11.40;;;5.63;;
34872;SDS011;21084;51.098;14.506;2024-01-07T11:49:01;14.15;;;7.47;;
34872;SDS011;21084;51.098;14.506;2024-01-07T11:51:54;10.93;;;6.18;;
34872;SDS011;21084;51.098;14.506;2024-01-07T11:54:47;11.95;;;6.10;;
34872;SDS011;21084;51.098;14.506;2024-01-07T11:57:43;10.30;;;6.20;;
34872;SDS011;21084;51.098;14.506;2024-01-07T12:00:35;11.32;;;6.10;;
34872;SDS011;21084;51.098;14.506;2024-01-07T12:03:28;12.95;;;6.30;;
34872;SDS011;21084;51.098;14.506;2024-01-07T12:06:21;15.82;;;7.38;;
34872;SDS011;21084;51.098;14.506;2024-01-07T12:09:15;15.00;;;6.93;;
34872;SDS011;21084;51.098;14.506;2024-01-07T12:12:07;10.65;;;6.10;;
34872;SDS011;21084;51.098;14.506;2024-01-07T12:15:02;10.82;;;5.97;;
34872;SDS011;21084;51.098;14.506;2024-01-07T12:17:56;10.77;;;5.75;;
34872;SDS011;21084;51.098;14.506;2024-01-07T12:20:56;11.57;;;6.35;;
34872;SDS011;21084;51.098;14.506;2024-01-07T12:23:52;9.20;;;5.60;;
34872;SDS011;21084;51.098;14.506;2024-01-07T12:26:45;10.75;;;6.10;;
34872;SDS011;21084;51.098;14.506;2024-01-07T12:58:56;9.23;;;5.55;;
34872;SDS011;21084;51.098;14.506;2024-01-07T13:01:25;8.45;;;5.03;;
34872;SDS011;21084;51.098;14.506;2024-01-07T13:03:53;9.30;;;5.57;;
34872;SDS011;21084;51.098;14.506;2024-01-07T13:06:22;10.68;;;6.20;;
34872;SDS011;21084;51.098;14.506;2024-01-07T13:08:50;38.45;;;15.40;;
34872;SDS011;21084;51.098;14.506;2024-01-07T13:11:19;10.75;;;6.50;;
34872;SDS011;21084;51.098;14.506;2024-01-07T13:13:48;10.05;;;6.15;;
34872;SDS011;21084;51.098;14.506;2024-01-07T13:16:18;9.65;;;5.78;;
34872;SDS011;21084;51.098;14.506;2024-01-07T13:18:47;11.32;;;6.03;;
34872;SDS011;21084;51.098;14.506;2024-01-07T13:21:16;12.38;;;6.65;;
34872;SDS011;21084;51.098;14.506;2024-01-07T13:23:45;12.00;;;7.32;;
34872;SDS011;21084;51.098;14.506;2024-01-07T13:26:15;9.32;;;6.03;;
34872;SDS011;21084;51.098;14.506;2024-01-07T13:28:44;10.40;;;5.85;;
34872;SDS011;21084;51.098;14.506;2024-01-07T13:31:13;9.10;;;5.82;;
34872;SDS011;21084;51.098;14.506;2024-01-07T13:33:43;22.25;;;11.13;;
34872;SDS011;21084;51.098;14.506;2024-01-07T13:36:13;12.80;;;5.70;;
34872;SDS011;21084;51.098;14.506;2024-01-07T13:38:42;9.10;;;5.38;;
34872;SDS011;21084;51.098;14.506;2024-01-07T13:41:14;11.77;;;5.50;;
34872;SDS011;21084;51.098;14.506;2024-01-07T13:43:43;12.13;;;5.93;;
34872;SDS011;21084;51.098;14.506;2024-01-07T13:46:12;10.50;;;5.25;;
34872;SDS011;21084;51.098;14.506;2024-01-07T13:48:41;10.17;;;5.97;;
34872;SDS011;21084;51.098;14.506;2024-01-07T13:51:12;10.32;;;6.00;;
34872;SDS011;21084;51.098;14.506;2024-01-07T13:53:40;10.85;;;5.43;;
34872;SDS011;21084;51.098;14.506;2024-01-07T13:56:09;9.38;;;5.20;;
34872;SDS011;21084;51.098;14.506;2024-01-07T13:58:37;7.82;;;5.63;;
34872;SDS011;21084;51.098;14.506;2024-01-07T14:01:08;13.32;;;6.75;;
34872;SDS011;21084;51.098;14.506;2024-01-07T14:03:36;9.82;;;5.63;;
34872;SDS011;21084;51.098;14.506;2024-01-07T14:06:05;12.50;;;6.90;;
34872;SDS011;21084;51.098;14.506;2024-01-07T14:08:35;11.88;;;6.57;;
34872;SDS011;21084;51.098;14.506;2024-01-07T14:11:04;12.07;;;6.90;;
34872;SDS011;21084;51.098;14.506;2024-01-07T14:13:34;14.98;;;7.03;;
34872;SDS011;21084;51.098;14.506;2024-01-07T14:16:03;12.93;;;7.07;;
34872;SDS011;21084;51.098;14.506;2024-01-07T14:18:33;13.80;;;7.43;;
34872;SDS011;21084;51.098;14.506;2024-01-07T14:21:01;13.73;;;7.38;;
34872;SDS011;21084;51.098;14.506;2024-01-07T14:23:30;12.65;;;7.13;;
34872;SDS011;21084;51.098;14.506;2024-01-07T14:28:30;15.30;;;7.15;;
34872;SDS011;21084;51.098;14.506;2024-01-07T14:30:58;12.43;;;6.90;;
34872;SDS011;21084;51.098;14.506;2024-01-07T14:33:27;13.25;;;6.90;;
34872;SDS011;21084;51.098;14.506;2024-01-07T14:35:56;14.10;;;7.63;;
34872;SDS011;21084;51.098;14.506;2024-01-07T14:38:26;14.00;;;6.90;;
34872;SDS011;21084;51.098;14.506;2024-01-07T14:40:55;14.98;;;6.72;;
34872;SDS011;21084;51.098;14.506;2024-01-07T14:43:25;18.90;;;9.48;;
34872;SDS011;21084;51.098;14.506;2024-01-07T14:45:53;14.68;;;7.45;;
34872;SDS011;21084;51.098;14.506;2024-01-07T14:48:22;13.23;;;6.60;;
34872;SDS011;21084;51.098;14.506;2024-01-07T14:50:51;13.88;;;6.90;;
34872;SDS011;21084;51.098;14.506;2024-01-07T14:53:20;14.00;;;7.93;;
34872;SDS011;21084;51.098;14.506;2024-01-07T14:55:48;16.52;;;8.80;;
34872;SDS011;21084;51.098;14.506;2024-01-07T14:58:17;17.50;;;8.90;;
34872;SDS011;21084;51.098;14.506;2024-01-07T15:00:49;11.40;;;5.93;;
34872;SDS011;21084;51.098;14.506;2024-01-07T15:03:18;15.10;;;7.47;;
34872;SDS011;21084;51.098;14.506;2024-01-07T15:05:47;18.25;;;8.68;;
34872;SDS011;21084;51.098;14.506;2024-01-07T15:08:15;11.43;;;6.40;;
34872;SDS011;21084;51.098;14.506;2024-01-07T15:13:13;9.75;;;5.22;;
34872;SDS011;21084;51.098;14.506;2024-01-07T15:15:46;8.70;;;5.13;;
34872;SDS011;21084;51.098;14.506;2024-01-07T15:18:16;8.25;;;5.43;;
34872;SDS011;21084;51.098;14.506;2024-01-07T15:20:45;10.63;;;5.40;;